createdAt,value
2017-11-01T00:00:06.112Z,85.00
2017-11-01T00:02:32.894Z,84.70
2017-11-01T00:04:59.875Z,85.30
2017-11-01T00:07:26.519Z,85.30
2017-11-01T00:09:53.167Z,85.20
2017-11-01T00:12:20.097Z,85.50
2017-11-01T00:14:47.227Z,85.40
2017-11-01T00:17:13.849Z,85.30
2017-11-01T00:19:40.647Z,85.50
2017-11-01T00:22:07.199Z,85.60
2017-11-01T00:24:33.739Z,85.70
2017-11-01T00:27:00.437Z,85.50
2017-11-01T00:29:27.058Z,85.30
2017-11-01T00:31:53.679Z,85.20
2017-11-01T00:34:20.706Z,85.70
2017-11-01T00:36:47.302Z,85.70
2017-11-01T00:39:13.922Z,85.80
2017-11-01T00:41:40.572Z,86.00
2017-11-01T00:44:07.193Z,86.10
2017-11-01T00:46:33.816Z,86.10
2017-11-01T00:49:00.511Z,86.20
2017-11-01T00:51:27.161Z,85.90
2017-11-01T00:53:54.163Z,85.80
2017-11-01T00:56:20.887Z,85.90
2017-11-01T00:58:47.534Z,85.80
2017-11-01T01:01:14.667Z,85.30
2017-11-01T01:03:41.288Z,85.30
2017-11-01T01:06:07.911Z,84.90
2017-11-01T01:08:34.942Z,85.20
2017-11-01T01:11:01.918Z,85.30
2017-11-01T01:13:28.462Z,85.30
2017-11-01T01:15:55.113Z,85.50
2017-11-01T01:18:22.114Z,84.90
2017-11-01T01:20:48.735Z,84.90
2017-11-01T01:23:15.487Z,85.20
2017-11-01T01:25:42.182Z,85.10
2017-11-01T01:28:08.803Z,85.10
2017-11-01T01:30:35.554Z,85.20
2017-11-01T01:33:02.589Z,85.30
2017-11-01T01:35:29.208Z,85.30
2017-11-01T01:37:56.238Z,85.00
2017-11-01T01:40:23.138Z,85.00
2017-11-01T01:42:49.760Z,85.20
2017-11-01T01:45:16.417Z,85.30
2017-11-01T01:47:43.439Z,85.40
2017-11-01T01:50:10.468Z,84.70
2017-11-01T01:52:37.091Z,84.70
2017-11-01T01:55:03.919Z,84.70
2017-11-01T01:57:30.511Z,85.10
2017-11-01T01:59:57.130Z,84.60
2017-11-01T02:02:23.858Z,84.60
2017-11-01T02:04:50.579Z,84.20
2017-11-01T02:07:17.330Z,83.90
2017-11-01T02:09:44.127Z,83.90
2017-11-01T02:12:10.775Z,83.80
2017-11-01T02:14:37.704Z,84.10
2017-11-01T02:17:04.327Z,84.30
2017-11-01T02:19:31.023Z,84.00
2017-11-01T02:21:57.677Z,84.10
2017-11-01T02:24:25.009Z,84.60
2017-11-01T02:26:51.738Z,84.60
2017-11-01T02:29:18.740Z,85.00
2017-11-01T02:31:45.531Z,85.00
2017-11-01T02:34:12.207Z,85.00
2017-11-01T02:36:38.932Z,84.70
2017-11-01T02:39:05.858Z,84.70
2017-11-01T02:41:32.894Z,84.10
2017-11-01T02:43:59.617Z,84.00
2017-11-01T02:46:26.545Z,83.70
2017-11-01T02:48:53.242Z,84.10
2017-11-01T02:51:19.875Z,84.30
2017-11-01T02:53:46.613Z,84.50
2017-11-01T02:56:13.411Z,84.90
2017-11-01T02:58:40.060Z,85.10
2017-11-01T03:01:07.162Z,85.20
2017-11-01T03:03:33.785Z,85.20
2017-11-01T03:06:00.511Z,85.00
2017-11-01T03:08:27.243Z,84.80
2017-11-01T03:10:53.885Z,84.60
2017-11-01T03:13:20.869Z,85.10
2017-11-01T03:15:47.820Z,85.10
2017-11-01T03:18:14.462Z,85.20
2017-11-01T03:20:41.082Z,85.20
2017-11-01T03:23:08.215Z,85.20
2017-11-01T03:25:34.915Z,85.20
2017-11-01T03:28:01.557Z,85.60
2017-11-01T03:30:28.286Z,85.70
2017-11-01T03:32:54.907Z,85.40
2017-11-01T03:35:21.515Z,85.50
2017-11-01T03:37:48.251Z,85.70
2017-11-01T03:40:14.974Z,85.70
2017-11-01T03:42:41.697Z,85.30
2017-11-01T03:45:08.421Z,85.40
2017-11-01T03:47:35.249Z,85.40
2017-11-01T03:50:01.961Z,85.30
2017-11-01T03:52:28.900Z,85.50
2017-11-01T03:54:55.626Z,85.30
2017-11-01T03:57:22.347Z,85.30
2017-11-01T03:59:49.039Z,85.10
2017-11-01T04:02:15.793Z,85.30
2017-11-01T04:04:42.516Z,85.10
2017-11-01T04:07:09.239Z,85.40
2017-11-01T04:09:36.065Z,85.70
2017-11-01T04:12:02.767Z,85.50
2017-11-01T04:14:29.515Z,85.40
2017-11-01T04:16:56.545Z,84.80
2017-11-01T04:19:23.269Z,84.80
2017-11-01T04:21:50.474Z,85.00
2017-11-01T04:24:17.204Z,85.00
2017-11-01T04:26:43.790Z,85.30
2017-11-01T04:29:10.547Z,85.30
2017-11-01T04:31:37.191Z,85.00
2017-11-01T04:34:03.919Z,85.30
2017-11-01T04:36:30.650Z,85.40
2017-11-01T04:38:57.671Z,85.60
2017-11-01T04:41:24.394Z,85.60
2017-11-01T04:43:51.218Z,85.60
2017-11-01T04:46:17.943Z,85.20
2017-11-01T04:48:44.768Z,85.20
2017-11-01T04:51:11.595Z,84.90
2017-11-01T04:53:39.240Z,84.80
2017-11-01T04:56:05.934Z,85.00
2017-11-01T04:58:35.554Z,85.50
2017-11-01T05:01:02.292Z,85.70
2017-11-01T05:03:29.005Z,85.80
2017-11-01T05:05:56.238Z,85.70
2017-11-01T05:08:28.914Z,85.70
2017-11-01T05:10:56.135Z,85.40
2017-11-01T05:13:22.832Z,85.40
2017-11-01T05:15:49.501Z,85.60
2017-11-01T05:18:17.186Z,85.80
2017-11-01T05:20:43.846Z,86.10
2017-11-01T05:23:10.474Z,86.00
2017-11-01T05:25:39.752Z,85.90
2017-11-01T05:28:06.447Z,85.90
2017-11-01T05:30:33.201Z,86.10
2017-11-01T05:33:00.027Z,86.40
2017-11-01T05:35:26.750Z,86.60
2017-11-01T05:37:53.473Z,86.60
2017-11-01T05:40:20.522Z,86.20
2017-11-01T05:42:47.203Z,86.20
2017-11-01T05:45:13.949Z,86.10
2017-11-01T05:47:40.775Z,86.10
2017-11-01T05:50:10.366Z,86.00
2017-11-01T05:52:36.998Z,86.20
2017-11-01T05:55:04.229Z,86.20
2017-11-01T05:57:30.948Z,86.20
2017-11-01T05:59:57.672Z,86.20
2017-11-01T06:02:24.496Z,86.30
2017-11-01T06:04:51.221Z,86.40
2017-11-01T06:07:18.327Z,86.30
2017-11-01T06:09:45.214Z,86.30
2017-11-01T06:12:11.902Z,86.30
2017-11-01T06:14:38.622Z,85.90
2017-11-01T06:17:05.345Z,85.50
2017-11-01T06:19:32.047Z,85.10
2017-11-01T06:21:58.770Z,85.20
2017-11-01T06:24:25.521Z,85.20
2017-11-01T06:26:52.244Z,84.90
2017-11-01T06:29:18.967Z,85.10
2017-11-01T06:31:45.793Z,85.00
2017-11-01T06:34:12.791Z,85.30
2017-11-01T06:36:39.547Z,85.30
2017-11-01T06:39:06.270Z,85.20
2017-11-01T06:41:32.996Z,85.30
2017-11-01T06:43:59.695Z,85.20
2017-11-01T06:46:26.415Z,84.90
2017-11-01T06:48:53.064Z,84.80
2017-11-01T06:51:20.197Z,84.90
2017-11-01T06:53:47.298Z,85.00
2017-11-01T06:56:14.051Z,84.90
2017-11-01T06:58:40.776Z,84.90
2017-11-01T07:01:07.987Z,84.70
2017-11-01T07:03:34.631Z,84.70
2017-11-01T07:06:04.123Z,84.00
2017-11-01T07:08:31.024Z,83.70
2017-11-01T07:10:57.671Z,83.70
2017-11-01T07:13:24.798Z,84.20
2017-11-01T07:15:51.734Z,84.30
2017-11-01T07:18:18.840Z,84.10
2017-11-01T07:20:45.459Z,84.10
2017-11-01T07:23:12.209Z,83.80
2017-11-01T07:25:39.239Z,84.10
2017-11-01T07:28:05.790Z,84.10
2017-11-01T07:30:32.484Z,84.10
2017-11-01T07:32:59.105Z,83.90
2017-11-01T07:35:26.107Z,83.40
2017-11-01T07:37:52.757Z,83.40
2017-11-01T07:40:19.315Z,83.30
2017-11-01T07:42:45.884Z,82.80
2017-11-01T07:45:12.498Z,82.80
2017-11-01T07:47:39.056Z,83.00
2017-11-01T07:50:05.635Z,82.80
2017-11-01T07:52:32.428Z,83.20
2017-11-01T07:54:59.079Z,83.40
2017-11-01T07:57:25.646Z,83.60
2017-11-01T07:59:52.357Z,83.70
2017-11-01T08:02:19.377Z,83.10
2017-11-01T08:04:45.997Z,83.10
2017-11-01T08:07:12.722Z,83.20
2017-11-01T08:09:39.342Z,83.60
2017-11-01T08:12:05.939Z,83.20
2017-11-01T08:14:33.346Z,83.80
2017-11-01T08:17:00.026Z,83.50
2017-11-01T08:19:26.620Z,83.60
2017-11-01T08:21:53.371Z,83.50
2017-11-01T08:24:20.298Z,83.50
2017-11-01T08:26:46.851Z,83.50
2017-11-01T08:29:13.515Z,83.40
2017-11-01T08:31:40.071Z,82.90
2017-11-01T08:34:06.998Z,82.10
2017-11-01T08:36:34.067Z,81.90
2017-11-01T08:39:00.631Z,81.90
2017-11-01T08:41:27.175Z,81.30
2017-11-01T08:43:54.267Z,80.70
2017-11-01T08:46:20.827Z,80.70
2017-11-01T08:48:47.767Z,80.90
2017-11-01T08:51:14.448Z,80.90
2017-11-01T08:53:41.047Z,81.40
2017-11-01T08:56:07.633Z,81.40
2017-11-01T08:58:34.275Z,81.50
2017-11-01T09:01:00.892Z,81.20
2017-11-01T09:03:27.452Z,81.40
2017-11-01T09:05:54.087Z,81.40
2017-11-01T09:08:21.005Z,81.50
2017-11-01T09:10:47.637Z,81.50
2017-11-01T09:13:14.359Z,81.90
2017-11-01T09:15:40.979Z,81.30
2017-11-01T09:18:07.675Z,81.50
2017-11-01T09:20:34.287Z,81.30
2017-11-01T09:23:00.848Z,81.20
2017-11-01T09:25:27.782Z,80.40
2017-11-01T09:27:55.622Z,80.70
2017-11-01T09:30:22.188Z,80.70
2017-11-01T09:32:48.869Z,80.70
2017-11-01T09:35:15.997Z,80.50
2017-11-01T09:37:42.591Z,80.50
2017-11-01T09:40:09.238Z,80.40
2017-11-01T09:42:35.963Z,80.70
2017-11-01T09:45:02.560Z,79.90
2017-11-01T09:47:29.119Z,80.30
2017-11-01T09:49:56.096Z,80.30
2017-11-01T09:52:22.647Z,80.30
2017-11-01T09:54:49.727Z,79.90
2017-11-01T09:57:16.355Z,80.20
2017-11-01T09:59:42.908Z,79.60
2017-11-01T10:02:09.478Z,79.40
2017-11-01T10:04:36.084Z,78.30
2017-11-01T10:07:02.638Z,78.30
2017-11-01T10:09:29.191Z,78.10
2017-11-01T10:11:55.803Z,78.20
2017-11-01T10:14:22.347Z,76.90
2017-11-01T10:16:49.276Z,76.00
2017-11-01T10:19:15.998Z,76.00
2017-11-01T10:21:42.944Z,75.80
2017-11-01T10:24:09.507Z,75.80
2017-11-01T10:26:37.074Z,74.70
2017-11-01T10:29:03.710Z,75.10
2017-11-01T10:31:30.254Z,74.40
2017-11-01T10:33:56.875Z,73.20
2017-11-01T10:36:23.431Z,73.60
2017-11-01T10:38:50.389Z,72.50
2017-11-01T10:41:17.504Z,72.10
2017-11-01T10:43:44.123Z,72.10
2017-11-01T10:46:10.695Z,72.00
2017-11-01T10:48:37.327Z,71.60
2017-11-01T10:51:03.890Z,71.20
2017-11-01T10:53:30.443Z,71.50
2017-11-01T10:55:57.420Z,71.40
2017-11-01T10:58:23.991Z,71.40
2017-11-01T11:00:50.999Z,69.30
2017-11-01T11:03:17.643Z,69.30
2017-11-01T11:05:44.599Z,69.20
2017-11-01T11:08:11.204Z,69.20
2017-11-01T11:10:38.280Z,69.50
2017-11-01T11:13:04.863Z,69.40
2017-11-01T11:15:38.547Z,69.30
2017-11-01T11:18:05.143Z,69.20
2017-11-01T11:20:32.107Z,68.70
2017-11-01T11:22:58.943Z,68.70
2017-11-01T11:25:25.524Z,68.30
2017-11-01T11:27:52.474Z,69.60
2017-11-01T11:30:19.097Z,69.60
2017-11-01T11:32:45.698Z,69.40
2017-11-01T11:35:12.683Z,70.00
2017-11-01T11:37:40.123Z,70.00
2017-11-01T11:40:06.794Z,69.20
2017-11-01T11:42:33.727Z,67.90
2017-11-01T11:45:00.352Z,67.90
2017-11-01T11:47:26.923Z,68.40
2017-11-01T11:49:53.499Z,69.00
2017-11-01T11:52:20.284Z,69.00
2017-11-01T11:54:46.887Z,68.90
2017-11-01T11:57:13.518Z,69.40
2017-11-01T11:59:40.183Z,69.20
2017-11-01T12:02:06.836Z,69.10
2017-11-01T12:04:33.410Z,69.70
2017-11-01T12:07:00.686Z,70.20
2017-11-01T12:09:27.295Z,70.20
2017-11-01T12:11:53.862Z,69.80
2017-11-01T12:14:20.523Z,70.00
2017-11-01T12:16:47.127Z,70.10
2017-11-01T12:19:14.075Z,71.60
2017-11-01T12:21:40.923Z,71.60
2017-11-01T12:24:07.495Z,72.20
2017-11-01T12:26:34.120Z,72.20
2017-11-01T12:29:00.742Z,70.40
2017-11-01T12:31:27.665Z,71.10
2017-11-01T12:33:54.599Z,71.20
2017-11-01T12:36:21.618Z,71.00
2017-11-01T12:38:48.600Z,71.00
2017-11-01T12:41:15.154Z,71.00
2017-11-01T12:43:41.782Z,71.00
2017-11-01T12:46:08.341Z,71.00
2017-11-01T12:48:34.903Z,71.50
2017-11-01T12:51:01.560Z,71.20
2017-11-01T12:53:28.484Z,70.20
2017-11-01T12:55:55.412Z,70.30
2017-11-01T12:58:22.403Z,70.70
2017-11-01T13:00:49.020Z,70.80
2017-11-01T13:03:15.599Z,71.10
2017-11-01T13:05:42.591Z,71.70
2017-11-01T13:08:09.155Z,71.70
2017-11-01T13:10:36.103Z,71.60
2017-11-01T13:13:02.743Z,71.60
2017-11-01T13:15:29.292Z,71.00
2017-11-01T13:17:55.880Z,70.80
2017-11-01T13:20:22.487Z,71.30
2017-11-01T13:22:49.091Z,71.60
2017-11-01T13:25:15.668Z,72.40
2017-11-01T13:27:42.475Z,72.10
2017-11-01T13:30:09.099Z,72.60
2017-11-01T13:32:35.660Z,72.60
2017-11-01T13:35:02.723Z,73.00
2017-11-01T13:37:29.373Z,73.00
2017-11-01T13:39:55.942Z,72.50
2017-11-01T13:42:22.945Z,73.40
2017-11-01T13:44:49.506Z,73.50
2017-11-01T13:47:16.116Z,73.30
2017-11-01T13:49:42.754Z,73.20
2017-11-01T13:52:09.335Z,73.10
2017-11-01T13:54:36.303Z,71.30
2017-11-01T13:57:03.555Z,71.30
2017-11-01T13:59:30.137Z,70.50
2017-11-01T14:01:56.720Z,70.20
2017-11-01T14:04:23.614Z,70.90
2017-11-01T14:06:50.220Z,69.80
2017-11-01T14:09:16.772Z,70.10
2017-11-01T14:11:43.394Z,70.40
2017-11-01T14:14:09.956Z,69.90
2017-11-01T14:16:36.521Z,69.50
2017-11-01T14:19:03.140Z,69.00
2017-11-01T14:21:29.691Z,69.40
2017-11-01T14:23:56.295Z,69.50
2017-11-01T14:26:22.928Z,68.80
2017-11-01T14:28:49.512Z,69.10
2017-11-01T14:31:16.072Z,69.60
2017-11-01T14:33:42.687Z,69.30
2017-11-01T14:36:09.252Z,69.10
2017-11-01T14:38:35.863Z,69.10
2017-11-01T14:41:02.888Z,70.00
2017-11-01T14:43:29.826Z,70.10
2017-11-01T14:45:56.750Z,70.00
2017-11-01T14:48:23.735Z,70.30
2017-11-01T14:50:50.296Z,70.30
2017-11-01T14:53:17.238Z,71.30
2017-11-01T14:55:43.987Z,71.30
2017-11-01T14:58:10.551Z,71.30
2017-11-01T15:00:37.223Z,71.40
2017-11-01T15:03:03.882Z,71.80
2017-11-01T15:05:30.439Z,71.70
2017-11-01T15:07:57.363Z,72.10
2017-11-01T15:10:24.362Z,71.80
2017-11-01T15:12:50.931Z,71.80
2017-11-01T15:15:17.491Z,72.30
2017-11-01T15:17:44.299Z,72.90
2017-11-01T15:20:10.902Z,73.70
2017-11-01T15:22:37.559Z,74.40
2017-11-01T15:25:04.172Z,74.40
2017-11-01T15:27:30.732Z,74.90
2017-11-01T15:29:57.679Z,75.90
2017-11-01T15:32:24.676Z,76.30
2017-11-01T15:34:51.239Z,76.30
2017-11-01T15:37:17.795Z,77.30
2017-11-01T15:39:44.419Z,77.50
2017-11-01T15:42:10.980Z,77.40
2017-11-01T15:44:37.995Z,77.60
2017-11-01T15:47:04.987Z,77.90
2017-11-01T15:49:31.548Z,77.90
2017-11-01T15:51:58.485Z,77.50
2017-11-01T15:54:25.480Z,77.70
2017-11-01T15:56:52.047Z,77.70
2017-11-01T15:59:18.584Z,78.40
2017-11-01T16:01:46.275Z,79.60
2017-11-01T16:04:12.837Z,78.60
2017-11-01T16:06:39.395Z,78.30
2017-11-01T16:09:06.535Z,78.60
2017-11-01T16:11:33.179Z,79.20
2017-11-01T16:13:59.734Z,79.40
2017-11-01T16:16:26.459Z,79.60
2017-11-01T16:18:53.103Z,80.00
2017-11-01T16:21:19.676Z,79.90
2017-11-01T16:23:46.791Z,80.70
2017-11-01T16:26:13.346Z,80.70
2017-11-01T16:28:46.963Z,81.00
2017-11-01T16:31:13.572Z,81.50
2017-11-01T16:33:40.147Z,82.00
2017-11-01T16:36:07.247Z,81.90
2017-11-01T16:38:33.804Z,81.90
2017-11-01T16:41:00.420Z,82.30
2017-11-01T16:43:27.052Z,82.40
2017-11-01T16:45:53.974Z,82.70
2017-11-01T16:48:20.543Z,82.70
2017-11-01T16:50:47.675Z,82.70
2017-11-01T16:53:14.232Z,83.10
2017-11-01T16:55:41.179Z,84.20
2017-11-01T16:58:08.630Z,84.00
2017-11-01T17:00:35.580Z,84.60
2017-11-01T17:03:02.146Z,84.60
2017-11-01T17:05:28.784Z,85.20
2017-11-01T17:07:55.342Z,85.40
2017-11-01T17:10:21.910Z,84.90
2017-11-01T17:12:48.512Z,84.70
2017-11-01T17:15:15.073Z,84.70
2017-11-01T17:17:42.004Z,84.70
2017-11-01T17:20:09.175Z,84.70
2017-11-01T17:22:35.739Z,84.70
2017-11-01T17:25:02.468Z,84.70
2017-11-01T17:27:29.088Z,84.20
2017-11-01T17:29:55.647Z,83.60
2017-11-01T17:32:22.199Z,83.50
2017-11-01T17:34:48.815Z,84.00
2017-11-01T17:37:15.363Z,84.60
2017-11-01T17:39:41.928Z,85.20
2017-11-01T17:42:08.554Z,85.30
2017-11-01T17:44:35.111Z,85.70
2017-11-01T17:47:01.681Z,85.60
2017-11-01T17:49:28.307Z,85.60
2017-11-01T17:51:54.859Z,85.40
2017-11-01T17:54:21.418Z,85.10
2017-11-01T17:56:48.514Z,85.00
2017-11-01T17:59:15.098Z,85.00
2017-11-01T18:01:41.663Z,85.10
2017-11-01T18:04:15.343Z,85.10
2017-11-01T18:06:41.908Z,84.70
2017-11-01T18:09:08.885Z,84.60
2017-11-01T18:11:36.247Z,84.60
2017-11-01T18:14:02.819Z,84.70
2017-11-01T18:16:29.400Z,85.00
2017-11-01T18:18:56.012Z,85.30
2017-11-01T18:21:22.579Z,85.40
2017-11-01T18:23:49.140Z,85.60
2017-11-01T18:26:15.784Z,85.80
2017-11-01T18:28:42.714Z,86.40
2017-11-01T18:31:09.295Z,86.40
2017-11-01T18:33:35.916Z,86.40
2017-11-01T18:36:02.567Z,86.50
2017-11-01T18:38:29.127Z,86.60
2017-11-01T18:40:55.769Z,86.60
2017-11-01T18:43:22.334Z,86.60
2017-11-01T18:45:48.887Z,86.80
2017-11-01T18:48:15.607Z,86.70
2017-11-01T18:50:42.167Z,86.70
2017-11-01T18:53:08.920Z,87.00
2017-11-01T18:55:35.883Z,87.80
2017-11-01T18:58:02.459Z,87.50
2017-11-01T19:00:29.091Z,87.50
2017-11-01T19:02:55.891Z,87.50
2017-11-01T19:05:22.539Z,87.50
2017-11-01T19:07:49.138Z,87.50
2017-11-01T19:10:15.986Z,87.50
2017-11-01T19:12:42.708Z,87.40
2017-11-01T19:15:09.327Z,87.20
2017-11-01T19:17:36.037Z,87.60
2017-11-01T19:20:02.757Z,87.50
2017-11-01T19:22:29.399Z,87.10
2017-11-01T19:24:57.459Z,87.50
2017-11-01T19:27:24.771Z,87.50
2017-11-01T19:29:51.376Z,87.60
2017-11-01T19:32:19.132Z,87.90
2017-11-01T19:34:45.780Z,88.20
2017-11-01T19:37:12.379Z,87.80
2017-11-01T19:39:46.234Z,88.10
2017-11-01T19:42:12.990Z,88.00
2017-11-01T19:44:39.944Z,87.80
2017-11-01T19:47:07.152Z,87.40
2017-11-01T19:49:34.428Z,87.40
2017-11-01T19:52:01.529Z,87.60
2017-11-01T19:54:28.760Z,87.60
2017-11-01T19:56:55.405Z,87.40
2017-11-01T19:59:22.435Z,87.80
2017-11-01T20:01:50.080Z,87.80
2017-11-01T20:04:17.112Z,87.80
2017-11-01T20:06:44.140Z,87.10
2017-11-01T20:09:10.840Z,87.10
2017-11-01T20:11:38.101Z,87.10
2017-11-01T20:14:04.815Z,86.90
2017-11-01T20:16:31.856Z,86.70
2017-11-01T20:18:59.780Z,86.90
2017-11-01T20:21:27.322Z,86.90
2017-11-01T20:23:54.585Z,86.80
2017-11-01T20:26:21.308Z,86.90
2017-11-01T20:28:49.236Z,87.10
2017-11-01T20:31:15.983Z,87.10
2017-11-01T20:33:42.645Z,87.00
2017-11-01T20:36:09.280Z,86.80
2017-11-01T20:38:36.061Z,87.00
2017-11-01T20:41:04.108Z,87.60
2017-11-01T20:43:31.139Z,87.70
2017-11-01T20:45:57.851Z,87.70
2017-11-01T20:48:25.315Z,87.70
2017-11-01T20:50:51.922Z,87.60
2017-11-01T20:53:19.090Z,87.50
2017-11-01T20:55:46.072Z,87.40
2017-11-01T20:58:13.499Z,87.50
2017-11-01T21:00:40.248Z,87.30
2017-11-01T21:03:06.886Z,87.60
2017-11-01T21:05:34.931Z,87.60
2017-11-01T21:08:02.368Z,87.60
2017-11-01T21:10:29.474Z,87.60
2017-11-01T21:12:56.121Z,87.60
2017-11-01T21:15:24.004Z,87.70
2017-11-01T21:17:50.909Z,87.80
2017-11-01T21:20:17.928Z,87.40
2017-11-01T21:22:44.754Z,87.40
2017-11-01T21:25:11.888Z,86.80
2017-11-01T21:27:38.917Z,87.00
2017-11-01T21:30:05.947Z,87.00
2017-11-01T21:32:32.571Z,87.00
2017-11-01T21:34:59.192Z,87.30
2017-11-01T21:37:25.813Z,87.30
2017-11-01T21:39:53.843Z,87.00
2017-11-01T21:42:21.513Z,87.00
2017-11-01T21:44:49.669Z,86.70
2017-11-01T21:47:16.698Z,87.40
2017-11-01T21:49:43.321Z,87.40
2017-11-01T21:52:10.019Z,87.50
2017-11-01T21:54:36.942Z,87.80
2017-11-01T21:57:03.671Z,88.00
2017-11-01T21:59:31.346Z,88.10
2017-11-01T22:01:58.065Z,88.50
2017-11-01T22:04:24.664Z,88.50
2017-11-01T22:06:51.510Z,88.60
2017-11-01T22:09:18.977Z,88.60
2017-11-01T22:11:45.880Z,88.70
2017-11-01T22:14:12.575Z,88.50
2017-11-01T22:16:39.633Z,88.40
2017-11-01T22:19:06.356Z,88.40
2017-11-01T22:21:32.980Z,88.20
2017-11-01T22:24:01.035Z,88.20
2017-11-01T22:26:27.655Z,88.20
2017-11-01T22:28:54.357Z,88.30
2017-11-01T22:31:20.998Z,88.50
2017-11-01T22:33:47.591Z,88.90
2017-11-01T22:36:14.342Z,89.10
2017-11-01T22:38:40.964Z,88.70
2017-11-01T22:41:07.968Z,88.30
2017-11-01T22:43:34.591Z,88.30
2017-11-01T22:46:01.239Z,88.00
2017-11-01T22:48:28.268Z,87.40
2017-11-01T22:50:54.891Z,87.40
2017-11-01T22:53:21.488Z,87.80
2017-11-01T22:55:48.234Z,88.00
2017-11-01T22:58:14.955Z,88.00
2017-11-01T23:00:41.959Z,88.40
2017-11-01T23:03:09.033Z,88.40
2017-11-01T23:05:36.356Z,88.50
2017-11-01T23:08:03.294Z,88.50
2017-11-01T23:10:30.427Z,88.50
2017-11-01T23:12:58.597Z,88.70
2017-11-01T23:15:25.505Z,88.70
2017-11-01T23:17:52.337Z,88.80
2017-11-01T23:20:19.566Z,89.00
2017-11-01T23:22:46.811Z,89.00
2017-11-01T23:25:14.045Z,88.80
2017-11-01T23:27:41.177Z,88.60
2017-11-01T23:30:08.408Z,88.50
2017-11-01T23:32:35.741Z,88.50
2017-11-01T23:35:02.477Z,88.50
2017-11-01T23:37:29.713Z,88.30
2017-11-01T23:39:56.942Z,88.80
2017-11-01T23:42:24.892Z,88.60
2017-11-01T23:44:52.127Z,88.30
2017-11-01T23:47:18.968Z,88.30
2017-11-01T23:49:46.193Z,88.50
2017-11-01T23:52:13.433Z,88.90
2017-11-01T23:54:40.556Z,89.10
2017-11-01T23:57:07.914Z,89.20
2017-11-01T23:59:35.240Z,89.40
